createdAt,value
2018-07-22T00:00:27.804Z,3.00
2018-07-22T00:02:56.696Z,2.97
2018-07-22T00:05:25.624Z,3.50
2018-07-22T00:07:54.520Z,4.40
2018-07-22T00:10:29.291Z,3.67
2018-07-22T00:12:58.957Z,4.40
2018-07-22T00:15:27.961Z,3.02
2018-07-22T00:17:56.860Z,3.83
2018-07-22T00:20:25.844Z,4.08
2018-07-22T00:22:54.741Z,5.47
2018-07-22T00:25:23.683Z,4.53
2018-07-22T00:27:52.676Z,2.70
2018-07-22T00:30:21.597Z,3.95
2018-07-22T00:32:50.642Z,3.67
2018-07-22T00:35:19.688Z,3.70
2018-07-22T00:37:48.753Z,3.80
2018-07-22T00:40:17.761Z,3.50
2018-07-22T00:42:46.876Z,4.12
2018-07-22T00:45:15.961Z,3.45
2018-07-22T00:47:45.074Z,8.35
2018-07-22T00:50:14.140Z,3.75
2018-07-22T00:52:43.191Z,3.45
2018-07-22T00:55:12.110Z,3.75
2018-07-22T00:57:41.025Z,3.40
2018-07-22T01:00:10.010Z,4.83
2018-07-22T01:02:38.958Z,4.70
2018-07-22T01:05:07.986Z,3.90
2018-07-22T01:07:36.980Z,3.67
2018-07-22T01:10:05.995Z,3.27
2018-07-22T01:12:34.949Z,4.70
2018-07-22T01:15:03.900Z,3.10
2018-07-22T01:17:32.875Z,5.00
2018-07-22T01:20:01.761Z,3.62
2018-07-22T01:22:30.699Z,3.27
2018-07-22T01:24:59.578Z,3.62
2018-07-22T01:27:28.492Z,4.08
2018-07-22T01:29:57.409Z,4.37
2018-07-22T01:32:26.330Z,3.45
2018-07-22T01:34:55.320Z,4.85
2018-07-22T01:37:24.205Z,3.92
2018-07-22T01:39:53.132Z,4.47
2018-07-22T01:42:22.022Z,3.25
2018-07-22T01:44:50.990Z,3.35
2018-07-22T01:47:20.001Z,2.83
2018-07-22T01:49:49.070Z,3.40
2018-07-22T01:52:18.109Z,4.10
2018-07-22T01:54:47.164Z,3.47
2018-07-22T01:57:16.177Z,4.03
2018-07-22T01:59:45.217Z,5.33
2018-07-22T02:02:14.384Z,3.70
2018-07-22T02:04:43.438Z,4.60
2018-07-22T02:07:12.455Z,3.73
2018-07-22T02:09:41.381Z,3.93
2018-07-22T02:12:10.428Z,4.58
2018-07-22T02:14:39.304Z,3.70
2018-07-22T02:17:08.191Z,3.62
2018-07-22T02:19:38.013Z,4.45
2018-07-22T02:22:07.010Z,3.67
2018-07-22T02:24:35.873Z,5.20
2018-07-22T02:27:04.804Z,5.07
2018-07-22T02:29:33.709Z,4.87
2018-07-22T02:32:02.635Z,6.30
2018-07-22T02:34:31.544Z,6.35
2018-07-22T02:37:00.474Z,5.10
2018-07-22T02:39:29.361Z,9.50
2018-07-22T02:41:58.324Z,6.33
2018-07-22T02:44:27.196Z,5.28
2018-07-22T02:46:56.136Z,5.40
2018-07-22T02:49:24.978Z,6.80
2018-07-22T02:51:53.950Z,6.72
2018-07-22T02:54:22.925Z,4.78
2018-07-22T02:56:51.881Z,6.17
2018-07-22T02:59:21.127Z,4.70
2018-07-22T03:01:50.108Z,4.45
2018-07-22T03:04:19.133Z,4.87
2018-07-22T03:06:48.198Z,4.70
2018-07-22T03:09:17.289Z,8.65
2018-07-22T03:11:46.335Z,4.65
2018-07-22T03:14:15.520Z,5.10
2018-07-22T03:16:44.569Z,4.53
2018-07-22T03:19:14.088Z,5.00
2018-07-22T03:21:43.153Z,6.83
2018-07-22T03:24:12.129Z,5.72
2018-07-22T03:26:41.036Z,5.03
2018-07-22T03:29:09.964Z,4.50
2018-07-22T03:31:38.860Z,5.28
2018-07-22T03:34:07.873Z,6.58
2018-07-22T03:36:36.780Z,5.37
2018-07-22T03:39:08.093Z,4.90
2018-07-22T03:41:36.976Z,5.10
2018-07-22T03:44:05.964Z,6.03
2018-07-22T03:46:34.860Z,5.37
2018-07-22T03:49:03.840Z,4.83
2018-07-22T03:51:32.772Z,6.47
2018-07-22T03:54:01.731Z,5.42
2018-07-22T03:56:30.639Z,10.50
2018-07-22T03:58:59.561Z,6.90
2018-07-22T04:01:28.465Z,5.72
2018-07-22T04:03:57.352Z,7.67
2018-07-22T04:06:26.267Z,6.80
2018-07-22T04:08:55.192Z,5.55
2018-07-22T04:11:24.121Z,5.22
2018-07-22T04:13:53.201Z,6.12
2018-07-22T04:16:22.189Z,5.78
2018-07-22T04:18:53.335Z,6.30
2018-07-22T04:21:23.778Z,5.80
2018-07-22T04:23:52.788Z,7.05
2018-07-22T04:26:22.139Z,6.08
2018-07-22T04:28:51.515Z,6.60
2018-07-22T04:31:20.596Z,6.33
2018-07-22T04:33:49.558Z,7.25
2018-07-22T04:36:18.670Z,9.83
2018-07-22T04:38:47.647Z,7.47
2018-07-22T04:41:16.776Z,9.53
2018-07-22T04:43:45.792Z,9.40
2018-07-22T04:46:14.872Z,6.92
2018-07-22T04:48:43.935Z,6.60
2018-07-22T04:51:12.909Z,7.92
2018-07-22T04:53:41.884Z,8.50
2018-07-22T04:56:10.827Z,8.03
2018-07-22T04:58:39.761Z,7.83
2018-07-22T05:01:08.661Z,7.87
2018-07-22T05:03:37.605Z,8.40
2018-07-22T05:06:06.489Z,11.53
2018-07-22T05:08:35.468Z,7.47
2018-07-22T05:11:04.401Z,7.20
2018-07-22T05:13:33.328Z,7.60
2018-07-22T05:16:02.219Z,8.67
2018-07-22T05:18:31.156Z,8.40
2018-07-22T05:21:00.038Z,8.08
2018-07-22T05:23:28.964Z,7.95
2018-07-22T05:25:57.877Z,7.80
2018-07-22T05:28:26.895Z,8.43
2018-07-22T05:30:55.804Z,9.13
2018-07-22T05:33:24.740Z,9.78
2018-07-22T05:35:53.733Z,8.05
2018-07-22T05:38:22.668Z,9.38
2018-07-22T05:40:51.679Z,8.05
2018-07-22T05:43:20.608Z,8.08
2018-07-22T05:45:49.566Z,10.43
2018-07-22T05:48:18.560Z,7.50
2018-07-22T05:50:47.500Z,8.03
2018-07-22T05:53:16.501Z,8.28
2018-07-22T05:55:45.528Z,7.85
2018-07-22T05:58:14.509Z,8.50
2018-07-22T06:00:43.509Z,8.18
2018-07-22T06:03:12.480Z,7.55
2018-07-22T06:05:41.466Z,8.10
2018-07-22T06:08:10.400Z,8.15
2018-07-22T06:10:39.413Z,7.83
2018-07-22T06:13:08.344Z,7.62
2018-07-22T06:15:37.316Z,7.25
2018-07-22T06:18:06.274Z,8.60
2018-07-22T06:20:35.243Z,7.15
2018-07-22T06:23:04.197Z,7.10
2018-07-22T06:25:33.180Z,7.35
2018-07-22T06:28:02.104Z,7.00
2018-07-22T06:30:31.172Z,7.30
2018-07-22T06:33:00.152Z,6.75
2018-07-22T06:35:29.076Z,8.23
2018-07-22T06:37:58.099Z,6.40
2018-07-22T06:40:27.001Z,7.08
2018-07-22T06:42:55.992Z,6.22
2018-07-22T06:45:24.884Z,6.60
2018-07-22T06:47:53.848Z,5.92
2018-07-22T06:50:22.797Z,6.00
2018-07-22T06:52:51.752Z,6.10
2018-07-22T06:55:20.712Z,6.50
2018-07-22T06:57:49.648Z,5.78
2018-07-22T07:00:18.611Z,5.78
2018-07-22T07:02:47.577Z,5.20
2018-07-22T07:05:16.507Z,6.92
2018-07-22T07:07:45.493Z,5.20
2018-07-22T07:10:14.479Z,6.10
2018-07-22T07:12:43.560Z,4.97
2018-07-22T07:15:12.513Z,4.90
2018-07-22T07:17:41.577Z,5.70
2018-07-22T07:20:10.605Z,5.17
2018-07-22T07:22:39.563Z,6.27
2018-07-22T07:25:08.716Z,4.63
2018-07-22T07:27:37.631Z,4.20
2018-07-22T07:30:06.641Z,4.47
2018-07-22T07:32:35.610Z,4.53
2018-07-22T07:35:04.712Z,3.90
2018-07-22T07:37:33.600Z,5.85
2018-07-22T07:40:02.586Z,7.00
2018-07-22T07:42:31.565Z,4.00
2018-07-22T07:45:00.485Z,4.78
2018-07-22T07:47:29.379Z,3.50
2018-07-22T07:49:58.299Z,3.40
2018-07-22T07:52:27.192Z,2.87
2018-07-22T07:54:56.196Z,3.90
2018-07-22T07:57:25.132Z,3.60
2018-07-22T07:59:54.880Z,3.33
2018-07-22T08:02:25.300Z,4.10
2018-07-22T08:04:54.568Z,4.30
2018-07-22T08:07:23.492Z,4.17
2018-07-22T08:09:52.447Z,5.20
2018-07-22T08:12:21.414Z,3.05
2018-07-22T08:14:50.342Z,3.65
2018-07-22T08:17:19.272Z,2.83
2018-07-22T08:19:48.244Z,3.95
2018-07-22T08:22:17.197Z,2.95
2018-07-22T08:24:46.128Z,3.25
2018-07-22T08:27:15.122Z,2.23
2018-07-22T08:29:44.088Z,2.83
2018-07-22T08:32:13.031Z,4.17
2018-07-22T08:34:41.945Z,2.17
2018-07-22T08:37:10.943Z,2.87
2018-07-22T08:39:39.815Z,3.30
2018-07-22T08:42:08.889Z,6.58
2018-07-22T08:44:37.912Z,2.87
2018-07-22T08:47:06.887Z,2.70
2018-07-22T08:49:35.836Z,2.40
2018-07-22T08:52:04.858Z,2.20
2018-07-22T08:54:33.724Z,2.50
2018-07-22T08:57:02.658Z,2.47
2018-07-22T08:59:31.632Z,2.90
2018-07-22T09:02:00.561Z,4.23
2018-07-22T09:04:29.428Z,2.62
2018-07-22T09:06:58.372Z,3.25
2018-07-22T09:09:27.265Z,3.90
2018-07-22T09:11:56.136Z,2.52
2018-07-22T09:14:25.049Z,3.35
2018-07-22T09:16:53.919Z,2.65
2018-07-22T09:19:22.835Z,3.17
2018-07-22T09:21:51.697Z,3.25
2018-07-22T09:24:20.608Z,2.42
2018-07-22T09:26:49.490Z,1.80
2018-07-22T09:29:18.401Z,4.40
2018-07-22T09:31:47.344Z,2.35
2018-07-22T09:34:16.325Z,2.62
2018-07-22T09:36:45.312Z,3.90
2018-07-22T09:39:14.371Z,2.12
2018-07-22T09:41:43.336Z,2.10
2018-07-22T09:44:12.269Z,2.50
2018-07-22T09:46:41.123Z,1.80
2018-07-22T09:49:10.081Z,3.85
2018-07-22T09:51:38.919Z,2.15
2018-07-22T09:54:07.826Z,2.02
2018-07-22T09:56:36.844Z,2.10
2018-07-22T09:59:05.779Z,2.58
2018-07-22T10:01:34.681Z,2.00
2018-07-22T10:04:03.642Z,3.12
2018-07-22T10:06:32.575Z,1.90
2018-07-22T10:09:01.608Z,2.20
2018-07-22T10:11:30.603Z,2.67
2018-07-22T10:13:59.484Z,2.42
2018-07-22T10:16:28.412Z,2.37
2018-07-22T10:18:57.277Z,3.10
2018-07-22T10:21:26.192Z,2.40
2018-07-22T10:23:55.093Z,1.92
2018-07-22T10:26:23.977Z,1.80
2018-07-22T10:28:52.832Z,2.00
2018-07-22T10:31:21.784Z,1.70
2018-07-22T10:33:50.836Z,3.00
2018-07-22T10:36:19.825Z,2.52
2018-07-22T10:38:48.789Z,2.10
2018-07-22T10:41:17.934Z,2.10
2018-07-22T10:43:46.869Z,2.80
2018-07-22T10:46:15.856Z,2.70
2018-07-22T10:48:44.872Z,2.42
2018-07-22T10:51:13.870Z,2.50
2018-07-22T10:53:42.775Z,2.75
2018-07-22T10:56:11.709Z,2.77
2018-07-22T10:58:40.737Z,1.90
2018-07-22T11:01:09.644Z,2.45
2018-07-22T11:03:38.516Z,2.30
2018-07-22T11:06:07.400Z,2.70
2018-07-22T11:08:36.329Z,2.47
2018-07-22T11:11:05.352Z,2.00
2018-07-22T11:13:34.361Z,2.07
2018-07-22T11:16:03.348Z,3.12
2018-07-22T11:18:32.320Z,2.77
2018-07-22T11:21:01.265Z,2.20
2018-07-22T11:23:30.119Z,2.90
2018-07-22T11:25:58.965Z,2.10
2018-07-22T11:28:27.853Z,2.10
2018-07-22T11:30:56.752Z,2.83
2018-07-22T11:33:25.647Z,2.95
2018-07-22T11:35:54.522Z,2.20
2018-07-22T11:38:23.456Z,2.72
2018-07-22T11:40:52.328Z,2.20
2018-07-22T11:43:21.228Z,1.87
2018-07-22T11:45:50.100Z,2.42
2018-07-22T11:48:19.089Z,1.72
2018-07-22T11:50:47.999Z,1.70
2018-07-22T11:53:17.068Z,2.20
2018-07-22T11:55:46.023Z,3.00
2018-07-22T11:58:15.132Z,5.03
2018-07-22T12:00:47.862Z,1.60
2018-07-22T12:03:18.564Z,3.60
2018-07-22T12:05:47.592Z,1.90
2018-07-22T12:08:16.693Z,2.83
2018-07-22T12:10:45.727Z,1.70
2018-07-22T12:13:14.730Z,2.50
2018-07-22T12:15:43.823Z,1.70
2018-07-22T12:18:12.742Z,1.60
2018-07-22T12:20:41.664Z,2.08
2018-07-22T12:23:10.512Z,2.00
2018-07-22T12:25:39.392Z,1.70
2018-07-22T12:28:08.260Z,3.40
2018-07-22T12:30:37.196Z,1.82
2018-07-22T12:33:06.077Z,1.90
2018-07-22T12:35:34.994Z,2.52
2018-07-22T12:38:03.914Z,1.75
2018-07-22T12:40:32.910Z,2.20
2018-07-22T12:43:01.800Z,2.72
2018-07-22T12:45:30.717Z,2.72
2018-07-22T12:47:59.623Z,2.07
2018-07-22T12:50:28.564Z,1.70
2018-07-22T12:52:57.450Z,1.70
2018-07-22T12:55:26.309Z,2.58
2018-07-22T12:57:55.268Z,1.80
2018-07-22T13:00:24.144Z,2.23
2018-07-22T13:02:53.032Z,1.80
2018-07-22T13:05:21.908Z,1.82
2018-07-22T13:07:50.804Z,1.70
2018-07-22T13:10:19.848Z,1.82
2018-07-22T13:12:48.797Z,1.77
2018-07-22T13:15:17.859Z,2.30
2018-07-22T13:17:46.984Z,1.72
2018-07-22T13:20:15.989Z,1.95
2018-07-22T13:22:45.045Z,1.98
2018-07-22T13:25:14.024Z,2.03
2018-07-22T13:27:43.000Z,2.10
2018-07-22T13:30:11.913Z,2.92
2018-07-22T13:32:40.832Z,2.20
2018-07-22T13:35:09.708Z,1.60
2018-07-22T13:37:38.652Z,1.77
2018-07-22T13:40:07.524Z,1.67
2018-07-22T13:42:36.444Z,2.60
2018-07-22T13:45:05.770Z,1.70
2018-07-22T13:47:34.780Z,1.70
2018-07-22T13:50:03.929Z,1.80
2018-07-22T13:52:32.921Z,3.20
2018-07-22T13:55:01.827Z,1.85
2018-07-22T13:57:30.712Z,1.70
2018-07-22T13:59:59.626Z,1.57
2018-07-22T14:02:28.493Z,2.45
2018-07-22T14:04:57.392Z,1.90
2018-07-22T14:07:26.266Z,1.90
2018-07-22T14:09:55.233Z,1.80
2018-07-22T14:12:24.129Z,1.50
2018-07-22T14:14:53.057Z,1.70
2018-07-22T14:17:22.054Z,2.45
2018-07-22T14:19:50.980Z,2.50
2018-07-22T14:22:19.924Z,1.82
2018-07-22T14:24:49.002Z,1.92
2018-07-22T14:27:17.969Z,2.33
2018-07-22T14:29:47.009Z,2.55
2018-07-22T14:32:16.327Z,2.22
2018-07-22T14:34:45.444Z,1.90
2018-07-22T14:37:14.436Z,2.30
2018-07-22T14:39:44.052Z,3.90
2018-07-22T14:42:12.975Z,2.17
2018-07-22T14:44:41.897Z,2.42
2018-07-22T14:47:10.894Z,3.02
2018-07-22T14:49:39.752Z,2.17
2018-07-22T14:52:08.636Z,2.72
2018-07-22T14:54:37.590Z,1.80
2018-07-22T14:57:06.542Z,1.83
2018-07-22T14:59:35.412Z,1.77
2018-07-22T15:02:04.401Z,2.37
2018-07-22T15:04:33.318Z,2.10
2018-07-22T15:07:02.257Z,2.70
2018-07-22T15:09:31.144Z,3.72
2018-07-22T15:12:00.378Z,2.10
2018-07-22T15:14:29.263Z,2.70
2018-07-22T15:16:58.160Z,2.67
2018-07-22T15:19:27.022Z,2.63
2018-07-22T15:21:55.948Z,1.80
2018-07-22T15:24:24.812Z,3.55
2018-07-22T15:26:53.764Z,2.10
2018-07-22T15:29:22.671Z,2.00
2018-07-22T15:31:51.562Z,3.00
2018-07-22T15:34:20.422Z,1.90
2018-07-22T15:36:49.293Z,3.20
2018-07-22T15:39:18.189Z,2.00
2018-07-22T15:41:47.096Z,2.25
2018-07-22T15:44:15.980Z,5.87
2018-07-22T15:46:44.917Z,3.77
2018-07-22T15:49:13.796Z,2.30
2018-07-22T15:51:42.692Z,3.83
2018-07-22T15:54:11.594Z,1.87
2018-07-22T15:56:40.482Z,2.72
2018-07-22T15:59:09.433Z,3.65
2018-07-22T16:01:38.316Z,2.40
2018-07-22T16:04:07.408Z,2.73
2018-07-22T16:06:36.265Z,2.27
2018-07-22T16:09:07.938Z,2.55
2018-07-22T16:11:36.817Z,1.90
2018-07-22T16:14:05.885Z,2.40
2018-07-22T16:16:34.816Z,2.10
2018-07-22T16:19:03.812Z,2.12
2018-07-22T16:21:32.699Z,3.17
2018-07-22T16:24:01.664Z,2.05
2018-07-22T16:26:30.599Z,2.20
2018-07-22T16:28:59.497Z,2.85
2018-07-22T16:31:28.376Z,2.58
2018-07-22T16:33:57.337Z,3.10
2018-07-22T16:36:26.270Z,5.08
2018-07-22T16:38:55.189Z,2.55
2018-07-22T16:41:24.060Z,2.15
2018-07-22T16:43:52.964Z,3.58
2018-07-22T16:46:21.891Z,2.40
2018-07-22T16:48:50.795Z,2.35
2018-07-22T16:51:19.685Z,2.65
2018-07-22T16:53:48.683Z,3.05
2018-07-22T16:56:17.690Z,3.02
2018-07-22T16:58:46.582Z,2.67
2018-07-22T17:01:15.570Z,2.77
2018-07-22T17:03:44.479Z,2.00
2018-07-22T17:06:13.411Z,2.65
2018-07-22T17:08:42.339Z,2.77
2018-07-22T17:11:11.248Z,2.30
2018-07-22T17:13:40.175Z,3.47
2018-07-22T17:16:09.104Z,5.05
2018-07-22T17:18:37.980Z,4.12
2018-07-22T17:21:07.013Z,2.00
2018-07-22T17:23:35.872Z,2.50
2018-07-22T17:26:04.848Z,2.92
2018-07-22T17:28:33.768Z,2.08
2018-07-22T17:31:02.720Z,2.00
2018-07-22T17:33:31.608Z,2.50
2018-07-22T17:36:00.526Z,3.58
2018-07-22T17:38:29.404Z,2.67
2018-07-22T17:40:58.337Z,2.98
2018-07-22T17:43:27.251Z,2.20
2018-07-22T17:45:56.208Z,3.37
2018-07-22T17:48:25.092Z,3.10
2018-07-22T17:50:54.039Z,3.95
2018-07-22T17:53:22.928Z,2.17
2018-07-22T17:55:51.816Z,3.37
2018-07-22T17:58:20.757Z,3.77
2018-07-22T18:00:49.840Z,4.12
2018-07-22T18:03:28.356Z,2.22
2018-07-22T18:05:57.246Z,2.60
2018-07-22T18:08:26.187Z,2.43
2018-07-22T18:10:55.600Z,2.45
2018-07-22T18:13:24.544Z,2.30
2018-07-22T18:15:53.482Z,3.08
2018-07-22T18:18:22.560Z,3.10
2018-07-22T18:20:51.438Z,2.50
2018-07-22T18:23:20.384Z,2.00
2018-07-22T18:25:49.360Z,2.55
2018-07-22T18:28:18.321Z,2.60
2018-07-22T18:30:47.274Z,2.70
2018-07-22T18:33:16.261Z,2.40
2018-07-22T18:35:45.229Z,3.17
2018-07-22T18:38:14.220Z,2.33
2018-07-22T18:40:43.141Z,2.37
2018-07-22T18:43:12.108Z,3.00
2018-07-22T18:45:40.996Z,2.35
2018-07-22T18:48:09.874Z,3.00
2018-07-22T18:50:38.812Z,2.50
2018-07-22T18:53:07.690Z,2.35
2018-07-22T18:55:36.588Z,2.60
2018-07-22T18:58:05.540Z,2.30
2018-07-22T19:00:34.453Z,1.70
2018-07-22T19:03:03.340Z,5.43
2018-07-22T19:05:32.272Z,2.12
2018-07-22T19:08:01.152Z,2.80
2018-07-22T19:10:30.075Z,1.50
2018-07-22T19:12:58.949Z,1.77
2018-07-22T19:15:27.893Z,1.40
2018-07-22T19:17:56.768Z,1.60
2018-07-22T19:20:25.685Z,1.30
2018-07-22T19:22:54.584Z,1.32
2018-07-22T19:25:23.509Z,1.50
2018-07-22T19:27:52.427Z,1.60
2018-07-22T19:30:21.381Z,1.30
2018-07-22T19:32:50.304Z,1.32
2018-07-22T19:35:19.244Z,2.17
2018-07-22T19:37:48.184Z,3.20
2018-07-22T19:40:17.200Z,1.60
2018-07-22T19:42:46.184Z,1.50
2018-07-22T19:45:15.225Z,1.12
2018-07-22T19:47:44.147Z,1.25
2018-07-22T19:50:13.059Z,1.30
2018-07-22T19:52:42.005Z,1.10
2018-07-22T19:55:10.880Z,1.25
2018-07-22T19:57:39.848Z,1.10
2018-07-22T20:00:08.830Z,1.10
2018-07-22T20:02:37.774Z,1.25
2018-07-22T20:05:06.728Z,1.20
2018-07-22T20:07:35.676Z,1.30
2018-07-22T20:10:04.853Z,1.20
2018-07-22T20:12:33.851Z,1.50
2018-07-22T20:15:02.713Z,1.72
2018-07-22T20:17:31.595Z,1.10
2018-07-22T20:20:00.477Z,1.03
2018-07-22T20:22:29.392Z,2.67
2018-07-22T20:24:58.284Z,1.20
2018-07-22T20:27:27.197Z,1.57
2018-07-22T20:29:56.081Z,1.20
2018-07-22T20:32:25.000Z,1.70
2018-07-22T20:34:53.881Z,1.20
2018-07-22T20:37:22.832Z,2.75
2018-07-22T20:39:51.713Z,1.23
2018-07-22T20:42:20.669Z,1.12
2018-07-22T20:44:49.600Z,1.10
2018-07-22T20:47:18.638Z,1.20
2018-07-22T20:49:47.544Z,1.45
2018-07-22T20:52:16.617Z,1.93
2018-07-22T20:54:45.543Z,1.33
2018-07-22T20:57:14.559Z,1.20
2018-07-22T20:59:43.495Z,1.10
2018-07-22T21:02:12.592Z,1.90
2018-07-22T21:04:41.560Z,1.40
2018-07-22T21:07:10.676Z,1.70
2018-07-22T21:09:39.660Z,1.80
2018-07-22T21:12:45.812Z,1.30
2018-07-22T21:15:15.231Z,2.10
2018-07-22T21:17:45.371Z,1.37
2018-07-22T21:20:14.516Z,1.95
2018-07-22T21:22:43.435Z,1.82
2018-07-22T21:25:12.588Z,2.75
2018-07-22T21:27:41.448Z,1.90
2018-07-22T21:30:11.373Z,2.95
2018-07-22T21:32:40.664Z,1.40
2018-07-22T21:35:09.659Z,1.30
2018-07-22T21:37:38.692Z,1.65
2018-07-22T21:40:07.616Z,1.55
2018-07-22T21:42:36.509Z,1.37
2018-07-22T21:45:06.281Z,1.50
2018-07-22T21:47:35.488Z,2.30
2018-07-22T21:50:05.119Z,1.35
2018-07-22T21:52:34.009Z,1.30
2018-07-22T21:55:02.973Z,1.40
2018-07-22T21:57:31.864Z,1.32
2018-07-22T22:00:00.816Z,1.50
2018-07-22T22:02:32.665Z,1.50
2018-07-22T22:05:02.856Z,1.43
2018-07-22T22:07:32.189Z,1.67
2018-07-22T22:10:01.434Z,1.60
2018-07-22T22:12:30.368Z,2.62
2018-07-22T22:14:59.392Z,3.52
2018-07-22T22:17:28.338Z,1.70
2018-07-22T22:19:57.321Z,1.93
2018-07-22T22:22:26.328Z,1.90
2018-07-22T22:24:55.309Z,1.70
2018-07-22T22:27:24.287Z,1.70
2018-07-22T22:29:53.190Z,1.57
2018-07-22T22:32:22.126Z,2.12
2018-07-22T22:34:50.996Z,1.70
2018-07-22T22:37:19.900Z,3.20
2018-07-22T22:39:48.777Z,2.50
2018-07-22T22:42:17.737Z,1.82
2018-07-22T22:44:46.620Z,1.60
2018-07-22T22:47:15.536Z,2.10
2018-07-22T22:49:44.410Z,1.90
2018-07-22T22:52:13.316Z,1.85
2018-07-22T22:54:42.208Z,1.80
2018-07-22T22:57:11.157Z,2.87
2018-07-22T22:59:40.013Z,1.80
2018-07-22T23:02:09.064Z,1.70
2018-07-22T23:04:37.924Z,1.70
2018-07-22T23:07:06.847Z,2.22
2018-07-22T23:09:35.747Z,1.80
2018-07-22T23:12:04.683Z,2.00
2018-07-22T23:14:33.571Z,2.30
2018-07-22T23:17:02.496Z,3.02
2018-07-22T23:19:31.389Z,1.85
2018-07-22T23:22:00.329Z,1.70
2018-07-22T23:24:29.261Z,2.08
2018-07-22T23:26:58.222Z,2.33
2018-07-22T23:29:27.180Z,7.40
2018-07-22T23:31:56.148Z,2.00
2018-07-22T23:34:25.205Z,1.95
2018-07-22T23:36:54.116Z,1.70
2018-07-22T23:39:23.004Z,1.92
2018-07-22T23:41:51.857Z,1.98
2018-07-22T23:44:20.752Z,2.00
2018-07-22T23:46:49.617Z,1.95
2018-07-22T23:49:18.540Z,2.02
2018-07-22T23:51:47.400Z,3.10
2018-07-22T23:54:16.321Z,2.37
2018-07-22T23:56:45.189Z,3.93
2018-07-22T23:59:14.072Z,1.77
